createdAt,value
2017-12-31T00:02:24.398Z,0.60
2017-12-31T00:04:52.714Z,4.90
2017-12-31T00:07:20.263Z,0.95
2017-12-31T00:09:47.805Z,0.77
2017-12-31T00:12:16.097Z,0.70
2017-12-31T00:14:44.513Z,1.48
2017-12-31T00:17:12.046Z,0.60
2017-12-31T00:19:39.590Z,1.40
2017-12-31T00:22:07.129Z,1.02
2017-12-31T00:24:35.444Z,0.70
2017-12-31T00:27:02.976Z,1.65
2017-12-31T00:29:31.298Z,1.85
2017-12-31T00:31:58.838Z,0.80
2017-12-31T00:34:26.363Z,1.45
2017-12-31T00:36:54.679Z,1.15
2017-12-31T00:39:22.225Z,0.75
2017-12-31T00:41:50.258Z,1.00
2017-12-31T00:44:17.803Z,1.33
2017-12-31T00:46:45.343Z,0.60
2017-12-31T00:49:12.888Z,1.80
2017-12-31T00:51:41.179Z,1.02
2017-12-31T00:54:08.775Z,0.70
2017-12-31T00:56:36.309Z,0.88
2017-12-31T00:59:03.873Z,1.20
2017-12-31T01:01:31.411Z,2.95
2017-12-31T01:03:58.944Z,2.65
2017-12-31T01:06:26.463Z,2.15
2017-12-31T01:08:54.004Z,2.87
2017-12-31T01:11:21.524Z,2.35
2017-12-31T01:13:49.878Z,2.30
2017-12-31T01:16:17.412Z,4.62
2017-12-31T01:18:44.948Z,1.62
2017-12-31T01:21:12.494Z,2.33
2017-12-31T01:23:40.823Z,8.93
2017-12-31T01:26:08.358Z,6.97
2017-12-31T01:28:35.900Z,5.95
2017-12-31T01:31:04.228Z,8.05
2017-12-31T01:33:31.755Z,6.57
2017-12-31T01:35:59.328Z,4.50
2017-12-31T01:38:26.880Z,2.72
2017-12-31T01:40:54.413Z,2.65
2017-12-31T01:43:22.727Z,6.40
2017-12-31T01:45:50.284Z,3.30
2017-12-31T01:48:17.982Z,3.05
2017-12-31T01:50:45.516Z,11.07
2017-12-31T01:53:13.058Z,7.05
2017-12-31T01:55:40.588Z,2.90
2017-12-31T01:58:08.897Z,3.30
2017-12-31T02:00:36.424Z,8.00
2017-12-31T02:03:04.732Z,6.47
2017-12-31T02:05:32.290Z,3.37
2017-12-31T02:07:59.811Z,7.03
2017-12-31T02:10:28.123Z,5.50
2017-12-31T02:12:55.653Z,4.95
2017-12-31T02:15:23.979Z,11.00
2017-12-31T02:17:51.524Z,4.37
2017-12-31T02:20:19.069Z,5.75
2017-12-31T02:22:46.600Z,3.33
2017-12-31T02:25:14.163Z,5.70
2017-12-31T02:27:42.584Z,6.30
2017-12-31T02:30:10.132Z,3.33
2017-12-31T02:32:37.684Z,4.15
2017-12-31T02:35:05.217Z,8.57
2017-12-31T02:37:33.530Z,3.78
2017-12-31T02:40:01.060Z,6.18
2017-12-31T02:42:29.385Z,5.90
2017-12-31T02:44:56.916Z,3.62
2017-12-31T02:47:24.465Z,5.50
2017-12-31T02:49:52.791Z,5.90
2017-12-31T02:52:20.335Z,2.00
2017-12-31T02:54:47.879Z,3.95
2017-12-31T02:57:15.447Z,4.03
2017-12-31T02:59:42.976Z,5.07
2017-12-31T03:02:11.287Z,3.72
2017-12-31T03:04:38.824Z,9.88
2017-12-31T03:07:06.369Z,3.55
2017-12-31T03:09:34.672Z,5.90
2017-12-31T03:12:02.196Z,7.25
2017-12-31T03:14:29.754Z,6.95
2017-12-31T03:16:57.279Z,4.18
2017-12-31T03:19:24.835Z,5.03
2017-12-31T03:21:52.365Z,4.93
2017-12-31T03:24:19.916Z,3.83
2017-12-31T03:26:48.207Z,6.07
2017-12-31T03:29:15.764Z,2.05
2017-12-31T03:31:43.301Z,4.00
2017-12-31T03:34:11.616Z,1.08
2017-12-31T03:36:39.139Z,2.45
2017-12-31T03:39:07.456Z,3.25
2017-12-31T03:41:34.973Z,3.53
2017-12-31T03:44:03.275Z,2.20
2017-12-31T03:46:30.807Z,1.75
2017-12-31T03:48:59.125Z,5.03
2017-12-31T03:51:26.665Z,2.45
2017-12-31T03:53:54.224Z,2.33
2017-12-31T03:56:22.507Z,2.00
2017-12-31T03:58:50.039Z,3.05
2017-12-31T04:01:18.355Z,3.25
2017-12-31T04:03:45.873Z,3.55
2017-12-31T04:06:14.179Z,1.52
2017-12-31T04:08:41.754Z,1.40
2017-12-31T04:11:09.315Z,6.28
2017-12-31T04:13:36.850Z,3.30
2017-12-31T04:16:05.153Z,2.78
2017-12-31T04:18:32.689Z,1.12
2017-12-31T04:21:00.248Z,6.57
2017-12-31T04:23:27.789Z,2.78
2017-12-31T04:25:56.098Z,3.65
2017-12-31T04:28:23.641Z,4.35
2017-12-31T04:30:51.988Z,8.68
2017-12-31T04:33:19.521Z,2.75
2017-12-31T04:35:47.041Z,3.40
2017-12-31T04:38:14.599Z,2.95
2017-12-31T04:40:42.888Z,1.80
2017-12-31T04:43:10.419Z,4.35
2017-12-31T04:45:37.964Z,4.05
2017-12-31T04:48:05.519Z,1.00
2017-12-31T04:50:33.045Z,6.62
2017-12-31T04:53:01.361Z,3.83
2017-12-31T04:55:28.904Z,2.10
2017-12-31T04:57:56.437Z,2.22
2017-12-31T05:00:24.758Z,3.72
2017-12-31T05:02:52.284Z,0.80
2017-12-31T05:05:20.598Z,2.00
2017-12-31T05:07:48.207Z,4.75
2017-12-31T05:10:15.723Z,1.58
2017-12-31T05:12:43.274Z,2.72
2017-12-31T05:15:10.816Z,1.23
2017-12-31T05:17:38.347Z,3.65
2017-12-31T05:20:05.889Z,1.77
2017-12-31T05:22:33.416Z,1.33
2017-12-31T05:25:00.966Z,3.28
2017-12-31T05:27:28.483Z,1.87
2017-12-31T05:29:56.788Z,2.10
2017-12-31T05:32:24.314Z,1.58
2017-12-31T05:34:51.864Z,4.65
2017-12-31T05:37:19.389Z,2.37
2017-12-31T05:39:46.918Z,1.67
2017-12-31T05:42:15.223Z,1.85
2017-12-31T05:44:42.753Z,1.77
2017-12-31T05:47:11.057Z,2.95
2017-12-31T05:49:38.584Z,2.40
2017-12-31T05:52:06.899Z,2.65
2017-12-31T05:54:34.473Z,5.47
2017-12-31T05:57:02.020Z,1.23
2017-12-31T05:59:29.568Z,4.10
2017-12-31T06:01:57.115Z,2.08
2017-12-31T06:04:24.662Z,2.62
2017-12-31T06:06:52.987Z,3.87
2017-12-31T06:09:20.556Z,2.03
2017-12-31T06:11:48.076Z,1.27
2017-12-31T06:14:15.612Z,1.73
2017-12-31T06:16:43.912Z,1.73
2017-12-31T06:19:11.460Z,3.37
2017-12-31T06:21:39.753Z,3.35
2017-12-31T06:24:07.305Z,3.30
2017-12-31T06:26:34.833Z,1.67
2017-12-31T06:29:02.378Z,1.15
2017-12-31T06:31:29.913Z,3.12
2017-12-31T06:33:57.450Z,3.45
2017-12-31T06:36:25.018Z,2.25
2017-12-31T06:38:52.543Z,4.40
2017-12-31T06:41:20.874Z,6.37
2017-12-31T06:43:48.420Z,1.37
2017-12-31T06:46:15.964Z,4.47
2017-12-31T06:48:43.488Z,4.65
2017-12-31T06:51:11.047Z,1.73
2017-12-31T06:53:38.576Z,2.03
2017-12-31T06:56:06.119Z,6.20
2017-12-31T06:58:34.437Z,4.70
2017-12-31T07:01:01.976Z,3.55
2017-12-31T07:03:29.522Z,4.53
2017-12-31T07:05:57.828Z,3.60
2017-12-31T07:08:25.374Z,1.77
2017-12-31T07:10:52.898Z,1.35
2017-12-31T07:13:20.462Z,2.87
2017-12-31T07:15:47.987Z,3.35
2017-12-31T07:18:16.298Z,5.82
2017-12-31T07:20:43.876Z,0.98
2017-12-31T07:23:11.430Z,3.03
2017-12-31T07:25:38.954Z,2.00
2017-12-31T07:28:08.136Z,2.78
2017-12-31T07:30:35.688Z,1.50
2017-12-31T07:33:03.984Z,2.83
2017-12-31T07:35:32.308Z,2.70
2017-12-31T07:37:59.838Z,1.20
2017-12-31T07:40:27.371Z,4.47
2017-12-31T07:42:55.711Z,2.75
2017-12-31T07:45:23.241Z,2.87
2017-12-31T07:47:50.888Z,4.32
2017-12-31T07:50:19.172Z,2.35
2017-12-31T07:52:46.727Z,3.97
2017-12-31T07:55:15.032Z,2.85
2017-12-31T07:57:42.609Z,3.15
2017-12-31T08:00:10.140Z,3.55
2017-12-31T08:02:37.714Z,3.03
2017-12-31T08:05:05.237Z,1.60
2017-12-31T08:07:33.562Z,2.55
2017-12-31T08:10:01.102Z,1.85
2017-12-31T08:12:28.671Z,2.65
2017-12-31T08:14:56.208Z,3.28
2017-12-31T08:17:23.733Z,2.10
2017-12-31T08:19:53.175Z,1.37
2017-12-31T08:22:20.712Z,2.95
2017-12-31T08:24:49.022Z,1.90
2017-12-31T08:27:16.552Z,2.70
2017-12-31T08:29:44.858Z,4.05
2017-12-31T08:32:12.397Z,1.02
2017-12-31T08:34:40.704Z,2.58
2017-12-31T08:37:08.238Z,3.72
2017-12-31T08:39:35.784Z,4.45
2017-12-31T08:42:04.095Z,2.12
2017-12-31T08:44:31.646Z,1.58
2017-12-31T08:46:59.184Z,4.25
2017-12-31T08:49:27.511Z,2.62
2017-12-31T08:51:55.067Z,1.33
2017-12-31T08:54:22.600Z,3.85
2017-12-31T08:56:50.154Z,2.90
2017-12-31T08:59:17.711Z,2.70
2017-12-31T09:01:45.246Z,4.15
2017-12-31T09:04:13.569Z,3.37
2017-12-31T09:06:41.111Z,1.05
2017-12-31T09:09:08.676Z,8.95
2017-12-31T09:11:36.270Z,0.80
2017-12-31T09:14:04.629Z,2.42
2017-12-31T09:16:32.192Z,3.67
2017-12-31T09:19:00.496Z,2.17
2017-12-31T09:21:28.064Z,2.72
2017-12-31T09:23:55.595Z,1.70
2017-12-31T09:26:23.121Z,2.40
2017-12-31T09:28:51.434Z,7.28
2017-12-31T09:31:18.968Z,3.05
2017-12-31T09:33:47.283Z,1.50
2017-12-31T09:36:15.266Z,2.35
2017-12-31T09:38:42.832Z,1.52
2017-12-31T09:41:10.360Z,2.05
2017-12-31T09:43:38.706Z,2.83
2017-12-31T09:46:06.231Z,2.60
2017-12-31T09:48:33.797Z,3.67
2017-12-31T09:51:01.345Z,2.30
2017-12-31T09:53:28.875Z,4.93
2017-12-31T09:55:57.191Z,4.12
2017-12-31T09:58:24.720Z,2.37
2017-12-31T10:00:53.028Z,1.00
2017-12-31T10:03:20.564Z,1.08
2017-12-31T10:05:48.883Z,4.00
2017-12-31T10:08:16.416Z,6.57
2017-12-31T10:10:43.963Z,0.95
2017-12-31T10:13:12.276Z,5.32
2017-12-31T10:15:39.833Z,3.08
2017-12-31T10:18:07.395Z,2.08
2017-12-31T10:20:34.920Z,2.22
2017-12-31T10:23:02.464Z,2.92
2017-12-31T10:25:30.785Z,1.95
2017-12-31T10:27:58.321Z,2.45
2017-12-31T10:30:25.894Z,1.40
2017-12-31T10:32:53.440Z,1.12
2017-12-31T10:35:21.064Z,2.28
2017-12-31T10:37:49.220Z,6.47
2017-12-31T10:40:16.752Z,1.02
2017-12-31T10:42:44.300Z,1.42
2017-12-31T10:45:11.840Z,2.33
2017-12-31T10:47:40.197Z,0.80
2017-12-31T10:50:08.525Z,1.30
2017-12-31T10:52:36.181Z,1.12
2017-12-31T10:55:03.736Z,2.05
2017-12-31T10:57:31.275Z,1.15
2017-12-31T10:59:59.587Z,1.73
2017-12-31T11:02:27.132Z,1.58
2017-12-31T11:04:54.941Z,0.90
2017-12-31T11:07:22.744Z,1.23
2017-12-31T11:09:51.317Z,0.85
2017-12-31T11:12:19.938Z,2.90
2017-12-31T11:14:48.276Z,1.17
2017-12-31T11:17:17.568Z,1.55
2017-12-31T11:19:46.175Z,0.80
2017-12-31T11:22:14.688Z,1.90
2017-12-31T11:24:42.493Z,1.33
2017-12-31T11:27:10.338Z,1.60
2017-12-31T11:29:38.085Z,1.35
2017-12-31T11:32:05.963Z,3.40
2017-12-31T11:34:33.776Z,2.25
2017-12-31T11:37:02.339Z,2.10
2017-12-31T11:39:29.888Z,2.55
2017-12-31T11:41:57.437Z,0.70
2017-12-31T11:44:25.016Z,2.30
2017-12-31T11:46:52.587Z,3.30
2017-12-31T11:49:20.162Z,3.00
2017-12-31T11:51:48.480Z,2.05
2017-12-31T11:54:16.595Z,4.22
2017-12-31T11:56:44.187Z,2.12
2017-12-31T11:59:12.529Z,0.95
2017-12-31T12:01:40.059Z,0.80
2017-12-31T12:04:07.592Z,3.00
2017-12-31T12:06:35.165Z,3.05
2017-12-31T12:09:02.709Z,0.60
2017-12-31T12:11:31.014Z,1.90
2017-12-31T12:13:58.584Z,3.55
2017-12-31T12:16:26.118Z,2.05
2017-12-31T12:18:53.672Z,1.37
2017-12-31T12:21:21.280Z,1.67
2017-12-31T12:23:48.831Z,1.40
2017-12-31T12:26:16.386Z,2.50
2017-12-31T12:28:43.946Z,1.55
2017-12-31T12:31:11.504Z,1.00
2017-12-31T12:33:39.062Z,1.42
2017-12-31T12:36:06.608Z,1.02
2017-12-31T12:38:34.172Z,1.42
2017-12-31T12:41:01.714Z,1.77
2017-12-31T12:43:29.265Z,0.88
2017-12-31T12:45:56.833Z,1.12
2017-12-31T12:48:24.381Z,0.75
2017-12-31T12:50:51.917Z,2.87
2017-12-31T12:53:19.533Z,0.80
2017-12-31T12:55:47.329Z,2.65
2017-12-31T12:58:14.904Z,1.37
2017-12-31T13:00:43.225Z,0.95
2017-12-31T13:03:10.780Z,1.60
2017-12-31T13:05:38.324Z,4.53
2017-12-31T13:08:05.875Z,1.10
2017-12-31T13:10:34.204Z,2.25
2017-12-31T13:13:01.798Z,2.30
2017-12-31T13:15:29.332Z,0.57
2017-12-31T13:17:56.877Z,0.80
2017-12-31T13:20:24.424Z,0.70
2017-12-31T13:22:51.967Z,0.70
2017-12-31T13:25:19.540Z,1.00
2017-12-31T13:27:47.068Z,1.30
2017-12-31T13:30:14.895Z,0.93
2017-12-31T13:32:42.543Z,3.27
2017-12-31T13:35:10.098Z,1.47
2017-12-31T13:37:37.636Z,1.00
2017-12-31T13:40:05.189Z,1.10
2017-12-31T13:42:32.720Z,2.63
2017-12-31T13:45:01.033Z,1.30
2017-12-31T13:47:28.587Z,0.90
2017-12-31T13:49:56.149Z,1.40
2017-12-31T13:52:23.691Z,1.03
2017-12-31T13:54:51.269Z,2.33
2017-12-31T13:57:18.810Z,0.70
2017-12-31T13:59:46.357Z,0.70
2017-12-31T14:02:14.659Z,1.70
2017-12-31T14:04:42.209Z,1.40
2017-12-31T14:07:09.758Z,0.97
2017-12-31T14:09:37.316Z,0.80
2017-12-31T14:12:04.848Z,1.27
2017-12-31T14:14:33.173Z,1.40
2017-12-31T14:17:00.716Z,1.03
2017-12-31T14:19:28.272Z,1.27
2017-12-31T14:21:55.825Z,2.00
2017-12-31T14:24:23.377Z,2.40
2017-12-31T14:26:50.932Z,1.73
2017-12-31T14:29:18.532Z,1.00
2017-12-31T14:31:46.836Z,2.30
2017-12-31T14:34:14.404Z,1.42
2017-12-31T14:36:42.049Z,1.90
2017-12-31T14:39:09.577Z,0.70
2017-12-31T14:41:37.919Z,0.80
2017-12-31T14:44:05.474Z,3.17
2017-12-31T14:46:37.579Z,3.62
2017-12-31T14:49:05.126Z,2.90
2017-12-31T14:51:32.701Z,2.08
2017-12-31T14:54:00.254Z,3.92
2017-12-31T14:56:28.587Z,1.25
2017-12-31T14:58:56.131Z,0.82
2017-12-31T15:01:23.696Z,2.72
2017-12-31T15:03:51.264Z,1.45
2017-12-31T15:06:18.815Z,2.05
2017-12-31T15:08:46.358Z,1.58
2017-12-31T15:11:13.911Z,2.25
2017-12-31T15:13:41.477Z,1.42
2017-12-31T15:16:09.021Z,6.93
2017-12-31T15:18:37.358Z,1.90
2017-12-31T15:21:04.900Z,1.75
2017-12-31T15:23:32.462Z,1.75
2017-12-31T15:26:00.025Z,1.37
2017-12-31T15:28:27.569Z,2.10
2017-12-31T15:30:55.114Z,1.30
2017-12-31T15:33:22.669Z,1.67
2017-12-31T15:35:50.214Z,1.70
2017-12-31T15:38:18.561Z,1.73
2017-12-31T15:40:46.088Z,2.15
2017-12-31T15:43:13.678Z,4.35
2017-12-31T15:45:41.255Z,6.93
2017-12-31T15:48:08.823Z,4.20
2017-12-31T15:50:36.373Z,4.07
2017-12-31T15:53:03.920Z,2.78
2017-12-31T15:55:31.441Z,1.55
2017-12-31T15:57:59.054Z,1.12
2017-12-31T16:00:26.587Z,2.20
2017-12-31T16:02:54.913Z,2.97
2017-12-31T16:05:22.480Z,5.62
2017-12-31T16:07:50.052Z,2.15
2017-12-31T16:10:17.592Z,1.35
2017-12-31T16:12:45.148Z,1.40
2017-12-31T16:15:12.704Z,2.83
2017-12-31T16:17:40.242Z,2.90
2017-12-31T16:20:07.812Z,2.65
2017-12-31T16:22:35.682Z,2.15
2017-12-31T16:25:03.244Z,2.95
2017-12-31T16:27:30.780Z,2.30
2017-12-31T16:29:58.332Z,1.90
2017-12-31T16:32:25.912Z,2.30
2017-12-31T16:34:53.440Z,1.58
2017-12-31T16:37:21.758Z,2.37
2017-12-31T16:39:49.284Z,3.12
2017-12-31T16:42:17.592Z,1.95
2017-12-31T16:44:45.121Z,2.72
2017-12-31T16:47:13.440Z,2.58
2017-12-31T16:49:40.987Z,3.70
2017-12-31T16:52:08.548Z,2.37
2017-12-31T16:54:36.088Z,3.80
2017-12-31T16:57:03.639Z,5.22
2017-12-31T16:59:31.955Z,8.52
2017-12-31T17:01:59.507Z,12.13
2017-12-31T17:04:27.051Z,15.00
2017-12-31T17:06:55.461Z,3.53
2017-12-31T17:09:22.997Z,6.57
2017-12-31T17:11:50.589Z,3.35
2017-12-31T17:14:18.162Z,3.70
2017-12-31T17:16:45.720Z,2.40
2017-12-31T17:19:15.081Z,2.72
2017-12-31T17:21:42.617Z,4.80
2017-12-31T17:24:10.935Z,2.08
2017-12-31T17:26:38.456Z,2.75
2017-12-31T17:29:06.795Z,1.60
2017-12-31T17:31:34.319Z,2.42
2017-12-31T17:34:01.844Z,3.90
2017-12-31T17:36:29.388Z,5.28
2017-12-31T17:38:56.924Z,5.43
2017-12-31T17:41:24.471Z,8.63
2017-12-31T17:43:52.006Z,3.50
2017-12-31T17:46:20.319Z,6.03
2017-12-31T17:48:47.831Z,6.93
2017-12-31T17:51:16.163Z,5.47
2017-12-31T17:53:44.493Z,4.95
2017-12-31T17:56:12.050Z,8.93
2017-12-31T17:58:39.700Z,38.95
2017-12-31T18:01:07.227Z,20.25
2017-12-31T18:03:34.767Z,11.90
2017-12-31T18:06:04.062Z,9.70
2017-12-31T18:08:31.614Z,9.63
2017-12-31T18:10:59.167Z,6.55
2017-12-31T18:13:26.714Z,9.15
2017-12-31T18:15:54.240Z,7.35
2017-12-31T18:18:22.553Z,11.27
2017-12-31T18:20:50.115Z,8.18
2017-12-31T18:23:17.656Z,12.45
2017-12-31T18:25:45.263Z,27.23
2017-12-31T18:28:13.581Z,8.93
2017-12-31T18:30:41.124Z,16.92
2017-12-31T18:33:08.675Z,11.85
2017-12-31T18:35:36.257Z,11.25
2017-12-31T18:38:03.804Z,32.63
2017-12-31T18:40:31.334Z,9.45
2017-12-31T18:42:59.661Z,8.13
2017-12-31T18:45:27.205Z,6.93
2017-12-31T18:47:54.736Z,23.45
2017-12-31T18:50:23.065Z,14.50
2017-12-31T18:52:50.604Z,9.35
2017-12-31T18:55:18.161Z,11.65
2017-12-31T18:57:45.679Z,7.45
2017-12-31T19:00:13.249Z,9.80
2017-12-31T19:02:41.528Z,7.37
2017-12-31T19:05:09.853Z,16.35
2017-12-31T19:07:37.382Z,4.32
2017-12-31T19:10:04.927Z,6.10
2017-12-31T19:12:33.227Z,6.57
2017-12-31T19:15:00.780Z,5.53
2017-12-31T19:17:28.312Z,12.30
2017-12-31T19:19:56.794Z,5.62
2017-12-31T19:22:25.097Z,9.23
2017-12-31T19:24:52.688Z,7.37
2017-12-31T19:27:20.221Z,13.55
2017-12-31T19:29:47.784Z,9.18
2017-12-31T19:32:15.320Z,9.15
2017-12-31T19:34:43.622Z,4.07
2017-12-31T19:37:11.173Z,4.47
2017-12-31T19:39:38.696Z,4.28
2017-12-31T19:42:06.241Z,3.10
2017-12-31T19:44:33.778Z,4.30
2017-12-31T19:47:02.105Z,4.35
2017-12-31T19:49:29.628Z,2.58
2017-12-31T19:51:58.040Z,13.88
2017-12-31T19:54:25.568Z,6.30
2017-12-31T19:56:54.092Z,4.07
2017-12-31T19:59:21.642Z,8.00
2017-12-31T20:01:49.175Z,3.85
2017-12-31T20:04:16.859Z,3.25
2017-12-31T20:06:44.391Z,6.20
2017-12-31T20:09:12.709Z,41.60
2017-12-31T20:11:40.995Z,6.87
2017-12-31T20:14:09.315Z,6.93
2017-12-31T20:16:36.829Z,5.95
2017-12-31T20:19:05.147Z,6.97
2017-12-31T20:21:32.672Z,7.47
2017-12-31T20:24:00.229Z,5.93
2017-12-31T20:26:28.585Z,4.20
2017-12-31T20:28:56.876Z,5.90
2017-12-31T20:31:25.188Z,5.40
2017-12-31T20:33:52.756Z,5.72
2017-12-31T20:36:20.311Z,5.10
2017-12-31T20:38:47.871Z,4.80
2017-12-31T20:41:15.431Z,8.75
2017-12-31T20:43:42.972Z,7.05
2017-12-31T20:46:10.599Z,5.37
2017-12-31T20:48:38.126Z,5.28
2017-12-31T20:51:05.695Z,4.12
2017-12-31T20:53:33.258Z,7.10
2017-12-31T20:56:00.871Z,3.83
2017-12-31T20:58:28.409Z,4.55
2017-12-31T21:00:56.734Z,3.90
2017-12-31T21:03:24.259Z,4.20
2017-12-31T21:05:52.568Z,6.45
2017-12-31T21:08:20.129Z,3.42
2017-12-31T21:10:47.688Z,4.68
2017-12-31T21:13:16.481Z,12.05
2017-12-31T21:15:44.040Z,7.72
2017-12-31T21:18:11.588Z,9.70
2017-12-31T21:20:39.176Z,4.07
2017-12-31T21:23:06.717Z,5.80
2017-12-31T21:25:34.240Z,5.28
2017-12-31T21:28:02.559Z,3.10
2017-12-31T21:30:30.081Z,4.57
2017-12-31T21:32:58.413Z,3.30
2017-12-31T21:35:25.938Z,8.30
2017-12-31T21:37:53.506Z,3.70
2017-12-31T21:40:21.036Z,4.05
2017-12-31T21:42:49.358Z,6.72
2017-12-31T21:45:16.895Z,4.60
2017-12-31T21:47:44.465Z,6.68
2017-12-31T21:50:12.016Z,4.80
2017-12-31T21:52:39.583Z,6.95
2017-12-31T21:55:07.112Z,5.55
2017-12-31T21:57:35.441Z,12.25
2017-12-31T22:00:02.978Z,6.10
2017-12-31T22:02:30.532Z,4.15
2017-12-31T22:04:58.075Z,3.85
2017-12-31T22:07:26.364Z,5.22
2017-12-31T22:09:53.913Z,5.95
2017-12-31T22:12:22.331Z,5.50
2017-12-31T22:14:49.895Z,3.90
2017-12-31T22:17:17.419Z,3.40
2017-12-31T22:19:44.973Z,5.50
2017-12-31T22:22:12.493Z,5.78
2017-12-31T22:24:40.074Z,4.32
2017-12-31T22:27:08.382Z,5.85
2017-12-31T22:29:35.919Z,4.87
2017-12-31T22:32:04.244Z,4.43
2017-12-31T22:34:31.796Z,9.40
2017-12-31T22:36:59.344Z,7.35
2017-12-31T22:39:26.875Z,10.20
2017-12-31T22:41:55.211Z,10.50
2017-12-31T22:44:22.746Z,7.30
2017-12-31T22:46:50.292Z,8.02
2017-12-31T22:49:17.816Z,10.48
2017-12-31T22:51:45.401Z,19.90
2017-12-31T22:54:13.700Z,10.98
2017-12-31T22:56:42.471Z,21.27
2017-12-31T22:59:10.004Z,15.15
2017-12-31T23:01:37.998Z,30.17
2017-12-31T23:04:06.407Z,65.47
2017-12-31T23:06:33.977Z,154.82
2017-12-31T23:09:01.515Z,130.27
2017-12-31T23:11:29.088Z,123.72
2017-12-31T23:13:56.626Z,117.18
2017-12-31T23:16:24.205Z,123.28
2017-12-31T23:18:51.767Z,125.18
2017-12-31T23:21:20.076Z,80.72
2017-12-31T23:23:47.656Z,75.65
2017-12-31T23:26:15.194Z,55.70
2017-12-31T23:28:42.758Z,62.00
2017-12-31T23:31:10.342Z,55.28
2017-12-31T23:33:37.895Z,44.38
2017-12-31T23:36:05.440Z,41.72
2017-12-31T23:38:34.381Z,33.35
2017-12-31T23:41:01.936Z,22.52
2017-12-31T23:43:29.492Z,23.23
2017-12-31T23:45:57.076Z,23.95
2017-12-31T23:48:25.392Z,12.68
2017-12-31T23:50:52.916Z,8.45
2017-12-31T23:53:21.224Z,10.55
2017-12-31T23:55:48.748Z,7.90
2017-12-31T23:58:17.054Z,12.93
